Time;durP1;ratioP1;P1;durP2;ratioP2;P2;SDS_P1;SDS_P2;PMS_P1;PMS_P2;Temp;Humidity;BMP_temperature;BMP_pressure;BME280_temperature;BME280_humidity;BME280_pressure;Samples;Min_cycle;Max_cycle;Signal;HPM_P1;HPM_P2
2022/12/12 00:01:23;;;;;;;12.82;4.28;;;;;;;;;;5041899;28;20037;-65
2022/12/12 00:03:50;;;;;;;8.60;2.58;;;;;;;;;;5020145;28;20135;-65
2022/12/12 00:06:36;;;;;;;6.20;3.08;;;;;;;;;;5056609;28;20041;-67
2022/12/12 00:09:04;;;;;;;5.80;3.55;;;;;;;;;;5048726;28;20117;-65
2022/12/12 00:11:31;;;;;;;3.13;1.88;;;;;;;;;;5042118;28;20064;-65
2022/12/12 00:13:58;;;;;;;15.57;4.55;;;;;;;;;;5040523;28;20041;-65
2022/12/12 00:16:25;;;;;;;8.63;3.90;;;;;;;;;;5055903;28;20041;-66
2022/12/12 00:19:11;;;;;;;9.93;3.88;;;;;;;;;;5036035;28;20067;-66
2022/12/12 00:21:38;;;;;;;2.38;1.45;;;;;;;;;;5035527;28;22327;-65
2022/12/12 00:24:05;;;;;;;5.50;3.17;;;;;;;;;;5037120;28;20041;-65
2022/12/12 00:26:32;;;;;;;5.55;3.10;;;;;;;;;;5035636;28;20048;-67
2022/12/12 00:28:59;;;;;;;6.03;2.00;;;;;;;;;;5036528;28;20063;-66
2022/12/12 00:31:26;;;;;;;7.38;2.80;;;;;;;;;;5035107;28;20690;-66
2022/12/12 00:33:53;;;;;;;5.90;2.47;;;;;;;;;;5035692;28;20128;-66
2022/12/12 00:36:24;;;;;;;12.63;4.05;;;;;;;;;;5033494;28;20068;-65
2022/12/12 00:38:51;;;;;;;6.22;3.20;;;;;;;;;;5036293;28;20059;-65
2022/12/12 00:41:18;;;;;;;5.28;2.50;;;;;;;;;;5037426;28;20132;-65
2022/12/12 00:43:45;;;;;;;10.38;3.72;;;;;;;;;;5018952;28;20045;-66
2022/12/12 00:46:15;;;;;;;3.08;1.50;;;;;;;;;;5038679;28;20130;-67
2022/12/12 00:48:41;;;;;;;5.13;2.70;;;;;;;;;;5034674;28;20045;-67
2022/12/12 00:51:11;;;;;;;6.50;3.42;;;;;;;;;;5020828;28;20038;-66
2022/12/12 00:53:39;;;;;;;14.25;4.55;;;;;;;;;;5050774;28;20175;-66
2022/12/12 00:56:05;;;;;;;6.25;3.55;;;;;;;;;;5019275;28;20518;-67
2022/12/12 00:58:32;;;;;;;10.65;5.88;;;;;;;;;;5019716;28;20040;-66
2022/12/12 01:01:05;;;;;;;2.22;1.42;;;;;;;;;;5018016;28;20829;-66
2022/12/12 01:03:35;;;;;;;2.72;1.75;;;;;;;;;;5034906;28;20522;-65
2022/12/12 01:06:03;;;;;;;4.13;1.67;;;;;;;;;;5018719;28;20044;-66
2022/12/12 01:08:30;;;;;;;3.30;2.63;;;;;;;;;;5019697;28;20052;-65
2022/12/12 01:10:57;;;;;;;4.28;1.98;;;;;;;;;;5018423;28;20033;-65
2022/12/12 01:13:24;;;;;;;7.25;2.55;;;;;;;;;;5020564;28;20048;-67
2022/12/12 01:15:51;;;;;;;3.95;2.63;;;;;;;;;;5019482;28;20172;-64
2022/12/12 01:18:18;;;;;;;1.75;1.33;;;;;;;;;;5043025;28;20041;-69
2022/12/12 01:20:45;;;;;;;5.80;2.75;;;;;;;;;;5021044;28;20703;-66
2022/12/12 01:23:12;;;;;;;3.65;2.17;;;;;;;;;;5021364;28;20033;-65
2022/12/12 01:25:38;;;;;;;1.75;1.15;;;;;;;;;;5018167;28;20056;-67
2022/12/12 01:28:05;;;;;;;4.65;2.28;;;;;;;;;;5054572;28;20048;-66
2022/12/12 01:30:32;;;;;;;3.17;1.98;;;;;;;;;;5024123;28;20040;-65
2022/12/12 01:32:59;;;;;;;5.63;2.58;;;;;;;;;;5022464;28;20056;-65
2022/12/12 01:35:26;;;;;;;28.63;3.20;;;;;;;;;;5018820;28;20107;-67
2022/12/12 01:37:53;;;;;;;8.30;4.10;;;;;;;;;;5017453;28;20038;-67
2022/12/12 01:40:22;;;;;;;3.17;1.67;;;;;;;;;;5019253;28;20037;-66
2022/12/12 01:42:49;;;;;;;2.90;2.47;;;;;;;;;;5028522;28;20146;-67
2022/12/12 01:45:34;;;;;;;2.80;1.65;;;;;;;;;;5018844;28;20041;-65
2022/12/12 01:48:01;;;;;;;4.72;3.08;;;;;;;;;;5025590;28;20557;-66
2022/12/12 01:50:27;;;;;;;4.15;2.33;;;;;;;;;;5012332;28;20402;-66
2022/12/12 01:52:54;;;;;;;4.35;2.42;;;;;;;;;;5018888;28;20127;-65
2022/12/12 01:55:22;;;;;;;1.98;1.38;;;;;;;;;;5015368;28;20068;-64
2022/12/12 01:57:51;;;;;;;6.57;2.55;;;;;;;;;;5017842;28;20425;-66
2022/12/12 02:00:18;;;;;;;3.35;1.75;;;;;;;;;;5018501;28;20053;-66
2022/12/12 02:02:45;;;;;;;2.65;2.03;;;;;;;;;;5018912;28;20136;-65
2022/12/12 02:05:16;;;;;;;2.70;1.55;;;;;;;;;;5019425;28;20041;-65
2022/12/12 02:07:43;;;;;;;11.52;2.45;;;;;;;;;;5021906;28;20411;-63
2022/12/12 02:10:10;;;;;;;5.55;3.08;;;;;;;;;;5019450;28;20547;-62
2022/12/12 02:12:37;;;;;;;4.72;2.33;;;;;;;;;;5017914;28;20038;-65
2022/12/12 02:15:24;;;;;;;7.10;2.15;;;;;;;;;;5040551;28;20049;-63
2022/12/12 02:17:56;;;;;;;4.85;2.45;;;;;;;;;;5039104;28;20056;-65
2022/12/12 02:20:29;;;;;;;5.32;2.40;;;;;;;;;;5038598;28;20083;-64
2022/12/12 02:23:04;;;;;;;3.88;2.17;;;;;;;;;;5039600;28;20601;-66
2022/12/12 02:25:48;;;;;;;4.57;3.17;;;;;;;;;;5021799;28;20564;-66
2022/12/12 02:28:35;;;;;;;7.65;4.13;;;;;;;;;;5040714;28;20134;-66
2022/12/12 02:31:23;;;;;;;4.35;1.83;;;;;;;;;;5005448;28;20051;-64
2022/12/12 02:34:05;;;;;;;6.45;2.70;;;;;;;;;;5035202;28;21071;-65
2022/12/12 02:36:34;;;;;;;5.55;3.08;;;;;;;;;;5031498;28;20131;-65
2022/12/12 02:39:01;;;;;;;3.60;1.88;;;;;;;;;;5037167;28;20529;-65
2022/12/12 02:41:35;;;;;;;9.75;2.40;;;;;;;;;;5039980;28;20172;-66
2022/12/12 02:44:05;;;;;;;4.20;2.10;;;;;;;;;;5037631;28;20128;-64
2022/12/12 02:46:38;;;;;;;8.18;3.15;;;;;;;;;;5036011;28;20997;-65
2022/12/12 02:49:08;;;;;;;6.47;1.98;;;;;;;;;;5017611;28;20051;-64
2022/12/12 02:51:36;;;;;;;3.05;1.75;;;;;;;;;;5036851;28;20072;-66
2022/12/12 02:54:03;;;;;;;4.35;2.05;;;;;;;;;;5038275;28;20675;-66
2022/12/12 02:56:47;;;;;;;5.95;2.03;;;;;;;;;;5052408;28;20052;-65
2022/12/12 02:59:25;;;;;;;5.57;1.80;;;;;;;;;;5054397;28;20524;-64
2022/12/12 03:02:00;;;;;;;1.45;1.20;;;;;;;;;;5039740;28;20388;-65
2022/12/12 03:07:58;;;;;;;1.60;1.25;;;;;;;;;;5075012;28;20050;-65
2022/12/12 03:10:37;;;;;;;3.90;2.22;;;;;;;;;;5065250;28;20501;-65
2022/12/12 03:13:09;;;;;;;1.15;0.80;;;;;;;;;;5062227;28;20105;-65
2022/12/12 03:15:45;;;;;;;3.30;1.88;;;;;;;;;;5074849;28;20093;-66
2022/12/12 03:18:30;;;;;;;4.13;2.88;;;;;;;;;;5064281;28;20044;-65
2022/12/12 03:20:59;;;;;;;2.83;2.10;;;;;;;;;;5066845;28;20085;-62
2022/12/12 03:23:28;;;;;;;3.67;2.58;;;;;;;;;;5057001;28;20445;-64
2022/12/12 03:26:08;;;;;;;0.47;0.32;;;;;;;;;;5078576;28;20048;-65
2022/12/12 03:28:38;;;;;;;4.53;2.97;;;;;;;;;;5079578;28;20569;-64
2022/12/12 03:31:07;;;;;;;8.23;3.17;;;;;;;;;;5072166;28;20033;-64
2022/12/12 03:33:33;;;;;;;3.30;1.75;;;;;;;;;;5059042;28;20036;-65
2022/12/12 03:36:06;;;;;;;5.00;3.55;;;;;;;;;;5075645;28;20055;-66
2022/12/12 03:38:35;;;;;;;3.47;1.47;;;;;;;;;;5082317;28;20082;-66
2022/12/12 03:41:04;;;;;;;1.00;0.80;;;;;;;;;;5082165;28;20036;-63
2022/12/12 03:43:44;;;;;;;2.00;1.23;;;;;;;;;;5024736;28;20056;-66
2022/12/12 03:46:17;;;;;;;3.30;1.38;;;;;;;;;;5021455;28;20049;-64
2022/12/12 03:48:47;;;;;;;3.38;1.60;;;;;;;;;;5021675;28;20122;-66
2022/12/12 03:51:14;;;;;;;4.57;1.95;;;;;;;;;;5034934;28;20044;-64
2022/12/12 03:53:46;;;;;;;8.48;3.00;;;;;;;;;;5026613;28;20238;-66
2022/12/12 03:56:18;;;;;;;6.95;3.13;;;;;;;;;;5022083;28;20144;-65
2022/12/12 03:59:02;;;;;;;0.73;0.57;;;;;;;;;;5041572;28;20042;-67
2022/12/12 04:01:36;;;;;;;7.25;3.78;;;;;;;;;;5019835;28;20033;-67
2022/12/12 04:04:02;;;;;;;;;;;;;;;;;;5022211;28;20131;-65
2022/12/12 04:06:33;;;;;;;3.75;1.65;;;;;;;;;;5019638;28;19920;-64
2022/12/12 04:15:12;;;;;;;8.32;3.92;;;;;;;;;;5020577;28;20055;-67
2022/12/12 04:17:47;;;;;;;3.58;2.50;;;;;;;;;;5020130;28;20045;-64
2022/12/12 04:23:17;;;;;;;6.35;3.20;;;;;;;;;;5025599;28;20098;-66
2022/12/12 04:28:53;;;;;;;4.50;2.20;;;;;;;;;;5019682;28;20127;-65
2022/12/12 04:31:22;;;;;;;1.40;0.90;;;;;;;;;;5019086;28;20406;-65
2022/12/12 04:33:51;;;;;;;14.40;4.15;;;;;;;;;;5021290;28;20179;-63
2022/12/12 04:36:18;;;;;;;3.20;1.73;;;;;;;;;;5020282;28;20057;-65
2022/12/12 04:38:46;;;;;;;1.88;1.13;;;;;;;;;;5041642;28;20046;-67
2022/12/12 04:41:14;;;;;;;7.13;3.75;;;;;;;;;;5019699;28;20109;-66
2022/12/12 04:43:42;;;;;;;3.55;2.03;;;;;;;;;;5020006;28;20041;-65
2022/12/12 04:46:12;;;;;;;3.17;1.58;;;;;;;;;;5019046;28;20208;-66
2022/12/12 04:48:42;;;;;;;4.80;2.72;;;;;;;;;;5020908;28;20415;-66
2022/12/12 04:51:10;;;;;;;3.13;1.80;;;;;;;;;;5020523;28;20040;-66
2022/12/12 04:53:39;;;;;;;8.05;3.00;;;;;;;;;;5019201;28;20132;-64
2022/12/12 04:56:09;;;;;;;5.07;2.85;;;;;;;;;;5018679;28;20202;-65
2022/12/12 04:58:36;;;;;;;3.97;2.05;;;;;;;;;;5051620;28;20045;-66
2022/12/12 05:01:21;;;;;;;4.07;1.83;;;;;;;;;;5021546;28;20098;-65
2022/12/12 05:03:56;;;;;;;3.08;2.03;;;;;;;;;;5036276;28;20105;-64
2022/12/12 05:06:27;;;;;;;7.63;3.42;;;;;;;;;;5022339;28;20045;-65
2022/12/12 05:08:54;;;;;;;6.93;1.88;;;;;;;;;;5018793;28;20045;-66
2022/12/12 05:11:23;;;;;;;2.03;1.17;;;;;;;;;;5033948;28;20059;-65
2022/12/12 05:13:51;;;;;;;4.60;2.85;;;;;;;;;;5038297;28;20039;-65
2022/12/12 05:16:22;;;;;;;4.57;1.95;;;;;;;;;;5039762;28;20493;-64
2022/12/12 05:18:49;;;;;;;7.25;3.22;;;;;;;;;;5035492;28;20057;-65
2022/12/12 05:21:17;;;;;;;6.75;2.97;;;;;;;;;;5044914;28;20086;-66
2022/12/12 05:23:43;;;;;;;10.07;4.22;;;;;;;;;;5029359;28;20502;-66
2022/12/12 05:26:19;;;;;;;11.73;1.85;;;;;;;;;;5019159;28;20058;-66
2022/12/12 05:28:46;;;;;;;3.67;2.05;;;;;;;;;;5028315;28;20049;-66
2022/12/12 05:31:12;;;;;;;10.40;3.45;;;;;;;;;;5018770;28;20162;-64
2022/12/12 05:33:39;;;;;;;13.27;4.63;;;;;;;;;;5017711;28;20041;-66
2022/12/12 05:36:07;;;;;;;6.57;2.97;;;;;;;;;;5018649;28;20064;-66
2022/12/12 05:38:34;;;;;;;4.68;2.25;;;;;;;;;;5015706;28;20021;-65
2022/12/12 05:41:01;;;;;;;3.75;2.53;;;;;;;;;;5020428;28;20063;-64
2022/12/12 05:43:28;;;;;;;6.32;1.50;;;;;;;;;;5039633;28;20113;-62
2022/12/12 05:45:54;;;;;;;2.97;1.63;;;;;;;;;;5033720;28;20486;-62
2022/12/12 05:48:21;;;;;;;3.70;1.55;;;;;;;;;;5020755;28;20076;-65
2022/12/12 05:50:48;;;;;;;12.48;3.17;;;;;;;;;;5029782;28;20053;-66
2022/12/12 05:53:14;;;;;;;5.13;1.75;;;;;;;;;;5025256;28;20045;-66
2022/12/12 05:55:41;;;;;;;15.35;4.72;;;;;;;;;;5033723;28;20064;-65
2022/12/12 05:58:09;;;;;;;5.28;3.00;;;;;;;;;;5018486;28;20616;-64
2022/12/12 06:00:37;;;;;;;5.75;2.80;;;;;;;;;;5051894;28;21954;-67
2022/12/12 06:03:04;;;;;;;5.45;2.20;;;;;;;;;;5018236;28;20064;-66
2022/12/12 06:05:31;;;;;;;6.32;2.95;;;;;;;;;;5018279;28;20155;-65
2022/12/12 06:07:57;;;;;;;8.50;3.55;;;;;;;;;;5020831;28;20059;-65
2022/12/12 06:10:24;;;;;;;3.00;1.58;;;;;;;;;;5019530;28;20129;-65
2022/12/12 06:12:51;;;;;;;3.67;2.38;;;;;;;;;;5018731;28;20033;-65
2022/12/12 06:15:17;;;;;;;8.45;2.92;;;;;;;;;;5019206;28;20045;-66
2022/12/12 06:17:44;;;;;;;20.73;3.17;;;;;;;;;;5017411;28;20040;-66
2022/12/12 06:20:11;;;;;;;4.70;2.28;;;;;;;;;;5018257;28;20047;-67
2022/12/12 06:22:37;;;;;;;7.72;3.55;;;;;;;;;;5050810;28;20037;-66
2022/12/12 06:25:04;;;;;;;5.13;2.65;;;;;;;;;;5016784;28;20176;-65
2022/12/12 06:27:31;;;;;;;10.02;1.77;;;;;;;;;;5019128;28;20103;-65
2022/12/12 06:29:58;;;;;;;5.72;2.95;;;;;;;;;;5019584;28;20034;-65
2022/12/12 06:32:24;;;;;;;2.97;1.55;;;;;;;;;;5017020;28;20033;-67
2022/12/12 06:34:51;;;;;;;5.10;1.80;;;;;;;;;;5016242;28;20057;-66
2022/12/12 06:37:18;;;;;;;4.90;3.63;;;;;;;;;;5018845;28;21070;-69
2022/12/12 06:39:45;;;;;;;4.45;2.13;;;;;;;;;;5017770;28;20053;-66
2022/12/12 06:42:12;;;;;;;3.00;1.70;;;;;;;;;;5018325;28;20103;-66
2022/12/12 06:44:39;;;;;;;7.28;2.45;;;;;;;;;;5017441;28;20061;-67
2022/12/12 06:47:06;;;;;;;9.38;2.95;;;;;;;;;;5029676;28;20041;-65
2022/12/12 06:49:33;;;;;;;8.35;3.10;;;;;;;;;;5025327;28;20033;-66
2022/12/12 06:51:59;;;;;;;8.80;3.08;;;;;;;;;;5038413;28;20083;-66
2022/12/12 06:54:26;;;;;;;10.45;2.25;;;;;;;;;;5036309;28;20510;-63
2022/12/12 06:56:53;;;;;;;7.38;2.40;;;;;;;;;;5058513;28;20047;-65
2022/12/12 06:59:20;;;;;;;6.28;3.35;;;;;;;;;;5059000;28;20064;-66
2022/12/12 07:01:46;;;;;;;9.73;3.58;;;;;;;;;;5059508;28;20138;-65
2022/12/12 07:04:13;;;;;;;6.13;1.80;;;;;;;;;;5058487;28;20537;-66
2022/12/12 07:06:40;;;;;;;6.25;2.80;;;;;;;;;;5054587;28;20032;-65
2022/12/12 07:09:07;;;;;;;7.55;3.60;;;;;;;;;;5054059;28;20060;-65
2022/12/12 07:11:34;;;;;;;1.65;1.02;;;;;;;;;;5057795;28;20047;-65
2022/12/12 07:14:04;;;;;;;3.72;1.48;;;;;;;;;;5058724;28;20052;-65
2022/12/12 07:16:31;;;;;;;6.90;2.75;;;;;;;;;;5054303;28;20056;-64
2022/12/12 07:18:57;;;;;;;3.92;2.13;;;;;;;;;;5043463;28;20675;-63
2022/12/12 07:21:24;;;;;;;4.50;2.58;;;;;;;;;;5059426;28;20036;-63
2022/12/12 07:23:51;;;;;;;10.63;3.70;;;;;;;;;;5044144;28;20067;-66
2022/12/12 07:26:19;;;;;;;18.33;4.10;;;;;;;;;;5063611;28;20049;-68
2022/12/12 07:28:46;;;;;;;3.25;1.65;;;;;;;;;;5042919;28;20646;-65
2022/12/12 07:31:14;;;;;;;2.75;1.42;;;;;;;;;;5037178;28;20065;-63
2022/12/12 07:33:42;;;;;;;5.43;2.33;;;;;;;;;;5037168;28;20405;-67
2022/12/12 07:36:08;;;;;;;8.73;2.72;;;;;;;;;;5035840;28;20577;-65
2022/12/12 07:38:35;;;;;;;6.60;2.22;;;;;;;;;;5036402;28;20927;-64
2022/12/12 07:41:10;;;;;;;3.58;1.85;;;;;;;;;;5038236;28;20071;-65
2022/12/12 07:43:37;;;;;;;7.05;3.63;;;;;;;;;;5037138;28;20044;-65
2022/12/12 07:46:07;;;;;;;6.90;3.58;;;;;;;;;;5036941;28;20064;-64
2022/12/12 07:48:34;;;;;;;4.63;3.05;;;;;;;;;;5037092;28;20060;-64
2022/12/12 07:51:01;;;;;;;6.85;3.85;;;;;;;;;;5038429;28;20095;-66
2022/12/12 07:53:28;;;;;;;12.68;5.68;;;;;;;;;;5036501;28;20037;-67
2022/12/12 07:55:55;;;;;;;3.97;1.70;;;;;;;;;;5036890;28;20103;-65
2022/12/12 07:58:22;;;;;;;3.70;2.10;;;;;;;;;;5035211;28;20417;-64
2022/12/12 08:00:48;;;;;;;4.75;2.88;;;;;;;;;;5037754;28;20040;-64
2022/12/12 08:03:15;;;;;;;2.75;1.10;;;;;;;;;;5041330;28;21044;-65
2022/12/12 08:05:42;;;;;;;6.53;2.28;;;;;;;;;;5038615;28;21849;-65
2022/12/12 08:08:09;;;;;;;6.22;3.15;;;;;;;;;;5041628;28;21698;-65
2022/12/12 08:10:38;;;;;;;11.98;5.25;;;;;;;;;;5041010;28;20539;-63
2022/12/12 08:13:05;;;;;;;7.90;3.80;;;;;;;;;;5040736;28;20944;-64
2022/12/12 08:15:32;;;;;;;4.07;1.92;;;;;;;;;;5038827;28;20049;-66
2022/12/12 08:17:58;;;;;;;4.93;2.72;;;;;;;;;;5041410;28;20044;-64
2022/12/12 08:20:25;;;;;;;3.60;2.08;;;;;;;;;;5039942;28;20080;-65
2022/12/12 08:22:52;;;;;;;9.43;3.22;;;;;;;;;;5041452;28;20052;-65
2022/12/12 08:25:18;;;;;;;3.25;1.73;;;;;;;;;;5040230;28;20056;-66
2022/12/12 08:27:45;;;;;;;6.50;4.30;;;;;;;;;;5041295;28;20044;-65
2022/12/12 08:30:12;;;;;;;6.20;3.75;;;;;;;;;;5041355;28;20094;-65
2022/12/12 08:32:39;;;;;;;6.03;3.75;;;;;;;;;;5039962;28;20603;-65
2022/12/12 08:35:06;;;;;;;10.55;5.70;;;;;;;;;;5039619;28;20509;-66
2022/12/12 08:37:32;;;;;;;5.72;3.08;;;;;;;;;;5039354;28;20379;-66
2022/12/12 08:39:59;;;;;;;17.08;6.55;;;;;;;;;;5040836;28;20615;-65
2022/12/12 08:42:26;;;;;;;5.10;2.83;;;;;;;;;;5039484;28;20525;-65
2022/12/12 08:44:52;;;;;;;12.07;4.25;;;;;;;;;;5039610;28;20171;-65
2022/12/12 08:47:19;;;;;;;11.32;3.35;;;;;;;;;;5039526;28;20036;-66
2022/12/12 08:49:46;;;;;;;6.45;4.40;;;;;;;;;;5040590;28;20405;-65
2022/12/12 08:52:12;;;;;;;5.50;2.83;;;;;;;;;;5039778;28;20401;-65
2022/12/12 08:54:39;;;;;;;14.90;4.70;;;;;;;;;;5039102;28;20045;-65
2022/12/12 08:57:06;;;;;;;11.30;6.45;;;;;;;;;;5040417;28;20064;-64
2022/12/12 08:59:32;;;;;;;5.05;3.40;;;;;;;;;;5040555;28;20041;-65
2022/12/12 09:01:59;;;;;;;4.65;3.45;;;;;;;;;;5039079;28;20032;-65
2022/12/12 09:04:26;;;;;;;4.07;2.60;;;;;;;;;;5038319;28;20033;-65
2022/12/12 09:06:52;;;;;;;9.07;4.80;;;;;;;;;;5040708;28;20078;-66
2022/12/12 09:09:19;;;;;;;4.43;2.83;;;;;;;;;;5038549;28;20033;-66
2022/12/12 09:11:46;;;;;;;9.35;5.15;;;;;;;;;;5040330;28;20095;-66
2022/12/12 09:14:12;;;;;;;9.05;3.75;;;;;;;;;;5039520;28;20123;-65
2022/12/12 09:16:39;;;;;;;6.72;3.95;;;;;;;;;;5038687;28;20065;-66
2022/12/12 09:19:06;;;;;;;6.97;3.88;;;;;;;;;;5040876;28;20518;-65
2022/12/12 09:21:33;;;;;;;5.47;2.97;;;;;;;;;;5038295;28;20148;-65
2022/12/12 09:24:00;;;;;;;8.20;4.32;;;;;;;;;;5019026;28;20357;-64
2022/12/12 09:26:27;;;;;;;6.80;4.15;;;;;;;;;;5019298;28;20110;-66
2022/12/12 09:28:54;;;;;;;4.93;2.63;;;;;;;;;;5020521;28;20116;-66
2022/12/12 09:31:20;;;;;;;4.85;2.50;;;;;;;;;;5018418;28;20065;-65
2022/12/12 09:33:47;;;;;;;6.97;3.13;;;;;;;;;;5020351;28;20408;-65
2022/12/12 09:36:14;;;;;;;4.20;2.08;;;;;;;;;;5018900;28;20049;-64
2022/12/12 09:38:41;;;;;;;6.97;2.97;;;;;;;;;;5019540;28;20049;-66
2022/12/12 09:41:10;;;;;;;5.90;2.85;;;;;;;;;;5020052;28;20069;-65
2022/12/12 09:43:38;;;;;;;4.90;2.10;;;;;;;;;;5019429;28;20037;-65
2022/12/12 09:46:14;;;;;;;3.97;2.33;;;;;;;;;;5019744;28;20528;-66
2022/12/12 09:48:42;;;;;;;5.10;1.48;;;;;;;;;;5020277;28;20120;-66
2022/12/12 09:51:12;;;;;;;6.65;2.92;;;;;;;;;;5020837;28;20087;-66
2022/12/12 09:53:40;;;;;;;6.20;2.60;;;;;;;;;;5020081;28;20033;-65
2022/12/12 09:56:07;;;;;;;3.88;2.33;;;;;;;;;;5040955;28;20080;-65
2022/12/12 09:58:46;;;;;;;5.43;3.35;;;;;;;;;;5019503;28;20450;-65
2022/12/12 10:01:38;;;;;;;12.45;2.45;;;;;;;;;;5019967;28;20539;-64
2022/12/12 10:04:07;;;;;;;9.18;4.22;;;;;;;;;;5018683;28;20042;-65
2022/12/12 10:06:57;;;;;;;7.13;4.03;;;;;;;;;;5022699;28;20037;-66
2022/12/12 10:09:42;;;;;;;7.05;3.55;;;;;;;;;;5023230;28;20505;-65
2022/12/12 10:12:12;;;;;;;6.32;4.13;;;;;;;;;;5030965;28;20056;-65
2022/12/12 10:14:57;;;;;;;8.65;3.63;;;;;;;;;;5029176;28;20056;-66
2022/12/12 10:17:29;;;;;;;12.75;5.40;;;;;;;;;;5026970;28;20036;-66
2022/12/12 10:19:59;;;;;;;11.52;5.35;;;;;;;;;;5019814;28;20084;-65
2022/12/12 10:22:32;;;;;;;8.35;2.90;;;;;;;;;;5027595;28;20393;-66
2022/12/12 10:25:06;;;;;;;6.50;4.85;;;;;;;;;;5031353;28;20049;-65
2022/12/12 10:27:32;;;;;;;9.52;6.15;;;;;;;;;;5020206;28;20047;-66
2022/12/12 10:30:00;;;;;;;6.40;4.68;;;;;;;;;;5020101;28;20092;-66
2022/12/12 10:32:36;;;;;;;4.70;2.42;;;;;;;;;;5019767;28;20250;-67
2022/12/12 10:35:03;;;;;;;5.47;3.50;;;;;;;;;;5018410;28;20457;-65
2022/12/12 10:37:30;;;;;;;10.23;5.05;;;;;;;;;;5017740;28;20075;-66
2022/12/12 10:39:56;;;;;;;6.35;3.72;;;;;;;;;;5018412;28;20076;-67
2022/12/12 10:42:35;;;;;;;11.65;5.28;;;;;;;;;;5017916;28;20136;-66
2022/12/12 10:45:08;;;;;;;19.58;7.90;;;;;;;;;;5021182;28;20980;-66
2022/12/12 10:47:35;;;;;;;7.88;3.53;;;;;;;;;;5017906;28;20167;-67
2022/12/12 10:50:10;;;;;;;8.57;5.60;;;;;;;;;;5018465;28;20065;-64
2022/12/12 10:52:37;;;;;;;9.00;5.47;;;;;;;;;;5016422;28;20045;-66
2022/12/12 10:55:12;;;;;;;4.68;2.28;;;;;;;;;;5016859;28;20123;-64
2022/12/12 10:57:39;;;;;;;5.28;3.47;;;;;;;;;;5017325;28;20049;-66
2022/12/12 11:00:26;;;;;;;21.88;6.15;;;;;;;;;;5018785;28;20038;-64
2022/12/12 11:02:56;;;;;;;7.20;3.47;;;;;;;;;;5017329;28;20953;-65
2022/12/12 11:05:29;;;;;;;12.60;7.63;;;;;;;;;;5026420;28;20033;-65
2022/12/12 11:07:56;;;;;;;;;;;;;;;;;;5019013;28;20037;-65
2022/12/12 11:10:34;;;;;;;5.72;3.15;;;;;;;;;;5017879;28;19917;-65
2022/12/12 11:13:01;;;;;;;9.77;4.78;;;;;;;;;;5017988;28;20049;-65
2022/12/12 11:15:29;;;;;;;10.55;5.50;;;;;;;;;;5047484;28;20061;-65
2022/12/12 11:17:57;;;;;;;10.40;4.95;;;;;;;;;;5017815;28;20541;-65
2022/12/12 11:20:24;;;;;;;8.00;3.78;;;;;;;;;;5017239;28;20367;-66
2022/12/12 11:22:55;;;;;;;8.88;4.22;;;;;;;;;;5049682;28;20137;-65
2022/12/12 11:25:32;;;;;;;11.73;6.93;;;;;;;;;;5016689;28;20467;-65
2022/12/12 11:28:00;;;;;;;11.82;7.28;;;;;;;;;;5017269;28;20045;-65
2022/12/12 11:30:34;;;;;;;9.70;3.50;;;;;;;;;;5016726;28;20029;-66
2022/12/12 11:33:01;;;;;;;12.85;5.63;;;;;;;;;;5017841;28;20045;-66
2022/12/12 11:35:36;;;;;;;8.27;4.13;;;;;;;;;;5016914;28;20048;-65
2022/12/12 11:38:07;;;;;;;11.27;7.03;;;;;;;;;;5025411;28;20053;-66
2022/12/12 11:40:35;;;;;;;14.00;8.55;;;;;;;;;;5021749;28;20032;-65
2022/12/12 11:43:14;;;;;;;9.60;6.35;;;;;;;;;;5033005;28;20096;-67
2022/12/12 11:45:41;;;;;;;6.13;3.58;;;;;;;;;;5036348;28;20045;-67
2022/12/12 11:48:29;;;;;;;8.45;4.80;;;;;;;;;;5024743;28;20045;-66
2022/12/12 11:50:56;;;;;;;8.13;4.70;;;;;;;;;;5051813;28;20776;-65
2022/12/12 11:53:23;;;;;;;9.95;4.10;;;;;;;;;;5021519;28;20238;-65
2022/12/12 11:56:07;;;;;;;5.15;2.50;;;;;;;;;;5022116;28;20049;-65
2022/12/12 11:58:41;;;;;;;9.02;3.60;;;;;;;;;;5017924;28;20037;-66
2022/12/12 12:01:12;;;;;;;7.35;3.17;;;;;;;;;;5035693;28;20048;-65
2022/12/12 12:03:57;;;;;;;6.85;4.13;;;;;;;;;;5021926;28;20045;-67
2022/12/12 12:06:27;;;;;;;11.02;6.15;;;;;;;;;;5019601;28;20046;-66
2022/12/12 12:09:09;;;;;;;8.90;5.75;;;;;;;;;;5020057;28;20045;-66
2022/12/12 12:11:45;;;;;;;10.15;6.72;;;;;;;;;;5031726;28;20805;-66
2022/12/12 12:14:44;;;;;;;15.20;8.57;;;;;;;;;;5021254;28;20041;-67
2022/12/12 12:17:19;;;;;;;17.42;6.30;;;;;;;;;;5004754;28;20809;-66
2022/12/12 12:19:53;;;;;;;7.95;5.10;;;;;;;;;;5030313;28;20148;-66
2022/12/12 12:22:38;;;;;;;7.53;5.78;;;;;;;;;;5020807;28;20128;-66
2022/12/12 12:25:19;;;;;;;10.88;6.22;;;;;;;;;;5019890;28;20098;-66
2022/12/12 12:27:45;;;;;;;4.20;3.05;;;;;;;;;;5034989;28;20073;-65
2022/12/12 12:30:15;;;;;;;6.05;3.65;;;;;;;;;;5040497;28;20384;-66
2022/12/12 12:33:00;;;;;;;10.45;6.75;;;;;;;;;;5038649;28;20033;-64
2022/12/12 12:35:30;;;;;;;11.95;4.70;;;;;;;;;;5039913;28;20063;-65
2022/12/12 12:38:06;;;;;;;8.88;5.30;;;;;;;;;;5040987;28;20048;-65
2022/12/12 12:40:33;;;;;;;10.18;6.40;;;;;;;;;;5039534;28;20044;-65
2022/12/12 12:43:19;;;;;;;8.52;5.65;;;;;;;;;;5040637;28;20028;-66
2022/12/12 12:45:49;;;;;;;11.45;8.13;;;;;;;;;;5030092;28;20048;-65
2022/12/12 12:48:19;;;;;;;21.35;10.88;;;;;;;;;;5020455;28;20037;-65
2022/12/12 12:50:52;;;;;;;7.63;3.75;;;;;;;;;;5029211;28;20042;-65
2022/12/12 12:53:26;;;;;;;10.30;5.75;;;;;;;;;;5050606;28;20386;-66
2022/12/12 12:55:55;;;;;;;15.82;8.18;;;;;;;;;;5020177;28;20045;-65
2022/12/12 12:58:28;;;;;;;9.75;6.22;;;;;;;;;;5033283;28;20041;-65
2022/12/12 13:01:23;;;;;;;11.37;7.03;;;;;;;;;;5037925;28;20026;-65
2022/12/12 13:03:54;;;;;;;10.95;7.75;;;;;;;;;;5012228;28;20307;-67
2022/12/12 13:06:25;;;;;;;14.02;6.03;;;;;;;;;;5022135;28;20037;-65
2022/12/12 13:09:05;;;;;;;8.52;4.22;;;;;;;;;;5021157;28;20037;-66
2022/12/12 13:11:52;;;;;;;11.18;5.30;;;;;;;;;;5019277;28;20040;-65
2022/12/12 13:14:23;;;;;;;6.53;4.50;;;;;;;;;;5020384;28;20068;-66
2022/12/12 13:16:51;;;;;;;8.98;3.35;;;;;;;;;;5051062;28;20053;-67
2022/12/12 13:19:36;;;;;;;2.42;1.88;;;;;;;;;;5021708;28;20033;-65
2022/12/12 13:22:12;;;;;;;24.83;6.20;;;;;;;;;;5022458;28;21726;-65
2022/12/12 13:24:57;;;;;;;8.90;3.95;;;;;;;;;;5048854;28;20098;-66
2022/12/12 13:27:27;;;;;;;12.23;6.22;;;;;;;;;;5034072;28;20577;-65
2022/12/12 13:29:53;;;;;;;14.13;7.07;;;;;;;;;;5019030;28;20387;-65
2022/12/12 13:32:26;;;;;;;20.67;6.30;;;;;;;;;;5017452;28;20044;-65
2022/12/12 13:35:03;;;;;;;12.50;7.20;;;;;;;;;;5018156;28;20521;-65
2022/12/12 13:37:32;;;;;;;9.45;6.15;;;;;;;;;;5021247;28;20090;-65
2022/12/12 13:40:00;;;;;;;7.30;5.80;;;;;;;;;;5051794;28;20037;-66
2022/12/12 13:42:47;;;;;;;11.48;6.47;;;;;;;;;;5050144;28;20071;-67
2022/12/12 13:45:29;;;;;;;10.48;4.25;;;;;;;;;;5020788;28;21710;-65
2022/12/12 13:47:56;;;;;;;19.88;7.40;;;;;;;;;;5026377;28;20042;-65
2022/12/12 13:50:23;;;;;;;17.65;5.35;;;;;;;;;;5018115;28;20043;-65
2022/12/12 13:53:08;;;;;;;7.43;5.45;;;;;;;;;;5019487;28;20197;-65
2022/12/12 13:55:35;;;;;;;12.98;7.10;;;;;;;;;;5017432;28;20111;-65
2022/12/12 13:58:09;;;;;;;15.80;8.32;;;;;;;;;;5019325;28;20045;-65
2022/12/12 14:00:35;;;;;;;;;;;;;;;;;;5018337;28;20414;-65
2022/12/12 14:03:02;;;;;;;2.63;1.45;;;;;;;;;;5016339;28;19917;-66
2022/12/12 14:05:33;;;;;;;18.80;9.07;;;;;;;;;;5017676;28;20048;-67
2022/12/12 14:08:03;;;;;;;10.38;6.32;;;;;;;;;;5018251;28;20968;-66
2022/12/12 14:10:34;;;;;;;12.55;4.88;;;;;;;;;;5017959;28;20117;-66
2022/12/12 14:13:18;;;;;;;4.93;3.58;;;;;;;;;;5017798;28;20473;-66
2022/12/12 14:15:45;;;;;;;17.02;5.18;;;;;;;;;;5018560;28;20782;-65
2022/12/12 14:18:25;;;;;;;4.88;3.60;;;;;;;;;;5019906;28;20060;-65
2022/12/12 14:20:59;;;;;;;14.48;6.75;;;;;;;;;;5019681;28;20056;-65
2022/12/12 14:23:27;;;;;;;4.00;2.83;;;;;;;;;;5019358;28;20072;-65
2022/12/12 14:25:54;;;;;;;9.63;6.13;;;;;;;;;;5018437;28;20030;-65
2022/12/12 14:28:29;;;;;;;15.23;6.68;;;;;;;;;;5017722;28;20127;-66
2022/12/12 14:30:59;;;;;;;12.13;8.52;;;;;;;;;;5017428;28;20025;-65
2022/12/12 14:33:25;;;;;;;7.82;6.93;;;;;;;;;;5018490;28;20906;-63
2022/12/12 14:36:10;;;;;;;16.35;8.75;;;;;;;;;;5018461;28;20053;-66
2022/12/12 14:38:55;;;;;;;14.85;8.90;;;;;;;;;;5016889;28;20124;-65
2022/12/12 14:41:25;;;;;;;6.75;4.28;;;;;;;;;;5019133;28;20095;-66
2022/12/12 14:43:55;;;;;;;7.45;5.15;;;;;;;;;;5018400;28;20091;-66
2022/12/12 14:46:22;;;;;;;13.52;7.45;;;;;;;;;;5019069;28;20055;-66
2022/12/12 14:49:01;;;;;;;14.10;4.45;;;;;;;;;;5018920;28;20473;-66
2022/12/12 14:51:30;;;;;;;12.77;6.90;;;;;;;;;;5016961;28;20106;-67
2022/12/12 14:53:58;;;;;;;18.08;9.18;;;;;;;;;;5016766;28;20076;-67
2022/12/12 14:56:29;;;;;;;9.30;5.25;;;;;;;;;;5017672;28;20455;-66
2022/12/12 14:58:56;;;;;;;8.80;5.90;;;;;;;;;;5017640;28;20036;-64
2022/12/12 15:01:33;;;;;;;7.85;5.50;;;;;;;;;;5020448;28;20102;-65
2022/12/12 15:04:23;;;;;;;19.67;8.05;;;;;;;;;;5028149;28;20739;-66
2022/12/12 15:06:51;;;;;;;19.35;6.55;;;;;;;;;;5030839;28;20029;-65
2022/12/12 15:09:24;;;;;;;22.73;8.45;;;;;;;;;;5036125;28;20045;-66
2022/12/12 15:11:52;;;;;;;11.75;7.68;;;;;;;;;;5012413;28;20110;-66
2022/12/12 15:14:21;;;;;;;4.35;2.08;;;;;;;;;;5031416;28;20041;-66
2022/12/12 15:16:50;;;;;;;12.93;7.05;;;;;;;;;;5033914;28;20084;-66